Airfield :
LOGIN :

Register | Disclaimer

   EN    FR    IT 

 










Legend :    VFR   Marginal VFR   IFR   Intensive IFR   Very Intensive IFR
Visi :
Ceiling :
>= 8 km
>= 3000ft
5 to 8 km
1000 to 3000 ft
1500m to 5 km
500 to 1000 ft
800 to 1500m
200 to 500 ft
< 800m
< 200 ft
Symbols :   Thunderstorms  Fog  Heavy snow  Heavy precipitations  Wind > 20 kt
SIGMETs :     Misc.  Thunderstorms  Icing  Turbulence  Mountain Waves  Volcanic Ashes







- Airport Elevation : 20 ft


EBFN - Koksijde

CURRENT METAR :
  • 241003Z AUTO 14006KT 7000 NCD 17/12 Q1022 WHT

EXPIRED METARs :
  • 240955Z AUTO 12006KT 8000 NCD 16/13 Q1022 BLU
  • 240925Z AUTO 11006KT 5000 NCD 15/12 Q1022 WHT
  • 240855Z AUTO 11006KT 5000 NCD 14/12 Q1022 WHT
  • 240825Z AUTO 11005KT 4300 BR BKN190/// 13/11 Q1022 GRN
  • 240817Z AUTO 11003KT 4100 BR BKN190/// 12/11 Q1022 GRN
  • 240805Z AUTO 11004KT 3500 BR BKN190/// 12/11 Q1022 YLO
  • 240754Z AUTO 11003KT 3500 BR SCT200/// BKN240/// 12/11 Q1022 YLO
  • 240725Z AUTO 11004KT 3300 BR BKN200/// BKN230/// 11/10 Q1022 YLO

TAF TAF EBFN
Valid from the 24 at 10:00 until the 24 at 19:00 UTC


240841Z 2410/2419 12008KT 9999 SCT120
TEMPO 2410/2412 6000 BR
No reported NOTAMs for that airfield.



MET'MAP, your aeronautical weather chart ! - Copyright ORBIFLY December 2007 - Disclaimer

ORBIFLY MET'MAP TEAM :

Programming & Development : Alexandra Zaïnal
Concept & Development : Baudouin d'Aumeries
Co-Development & Prog : Marc-Olivier Méhu
Technical & hardware support : Manuel Goepfert

Contact : metmap@orbifly.com




SOURCES & CREDITS :

   NOAA